Fort Story, Virginia
Current Conditions -  °F | °C
As of 1:21 AM on Wednesday 26 Nov 2014 (Local Time) from KNTU Reporting Station
Light Rain Light Rain  
Wind Chill: 53°   Ceiling: 600
Heat Index: 53°   Visibility: 7mi
Dew Point: 50°   Wind: 15mph
Humidity: 89%   Direction: 40°NE
Pressure: 30.02"   Gusts: NA
Location:  36.922°N, 76.0108°W
Report Text: KNTU 260621Z 04013KT 7SM -RA BKN006 OVC025 12/10 A3002 RMK AO2 P0000 T01170100
Loading
Personal Weather Stations






























Interactive Weather Map New forecast layout! Learn more

10-Day Weather Forecast

Advertisements
Track Severe Weather on mobile